Flight Number: EUR2442 Duration: 6:00
Departure: Dakar Int'l Airport (GOOY) at 08:00 Distance: 2481 Nm
Arrival: Munich Int'l (EDDM) at 14:00 Equipment: B777

Weather Information
Dakar / Yoff, Senegal (GOOY) 14-44N 017-30W 24M Sep 21, 2017 - 10:00 AM EDT / 2017.09.21 1400 UTC
Wind: from the NNE (020 degrees) at 9 MPH (8 KT) (direction variable):0
Visibility: greater than 7 mile(s):0 Temperature: 93 F (34 C) Heat index: 100.0 F (37.8 C):1 Dew Point: 71 F (22 C) Relative Humidity: 49% Pressure (altimeter): 29.83 in. Hg (1010 hPa)
ob: GOOY 211400Z 02008KT 340V050 CAVOK 34/22 Q1010 NOSIG cycle: 14
Sunrise: 07:01 Sunset: 19:04 (UTC)

Munchen, Germany (EDDM) 48-21N 011-47E Sep 21, 2017 - 09:50 AM EDT / 2017.09.21 1350 UTC
Wind: from the SE (130 degrees) at 5 MPH (4 KT) (direction variable):0
Visibility: greater than 7 mile(s):0
Sky conditions: partly cloudy Temperature: 60 F (16 C) Dew Point: 44 F (7 C) Relative Humidity: 55% Pressure (altimeter): 30.15 in. Hg (1021 hPa)
ob: EDDM 211350Z 13004KT 080V190 9999 FEW040 SCT060 16/07 Q1021 NOSIG cycle: 14
Sunrise: 05:02 Sunset: 17:08 (UTC)

TAF:2017/09/21 12:27 TAF EDDM 211100Z 2112/2218 VRB03KT 9999 SCT020 BECMG 2123/2201 2000 BCFG TEMPO 2202/2208 0400 FG VV001 BECMG 2208/2210 9999

Previous Pireps for this route
Date Aircraft Flight time Fuel used Landing rate On time
2016-03-10B77706.11109136-84Yes
2016-04-10B77705.05106121-224Yes
(pireps marked green are flown by you)

Route map